createdAt,value
2018-05-03T00:02:21.291Z,69.20
2018-05-03T00:04:47.997Z,68.10
2018-05-03T00:07:13.947Z,67.90
2018-05-03T00:09:39.906Z,68.60
2018-05-03T00:12:05.861Z,68.60
2018-05-03T00:14:31.818Z,68.90
2018-05-03T00:16:57.800Z,68.50
2018-05-03T00:19:24.574Z,69.20
2018-05-03T00:21:51.363Z,68.60
2018-05-03T00:24:17.341Z,68.60
2018-05-03T00:26:43.296Z,68.80
2018-05-03T00:29:09.988Z,68.80
2018-05-03T00:31:35.962Z,68.80
2018-05-03T00:34:01.936Z,67.80
2018-05-03T00:36:27.917Z,68.60
2018-05-03T00:38:53.928Z,68.70
2018-05-03T00:41:19.877Z,67.70
2018-05-03T00:43:45.855Z,68.50
2018-05-03T00:46:12.565Z,68.30
2018-05-03T00:48:38.522Z,68.90
2018-05-03T00:51:04.469Z,69.30
2018-05-03T00:53:30.648Z,69.70
2018-05-03T00:55:56.628Z,70.40
2018-05-03T00:58:22.618Z,70.80
2018-05-03T01:00:48.584Z,70.80
2018-05-03T01:03:14.534Z,71.20
2018-05-03T01:05:40.494Z,72.10
2018-05-03T01:08:07.210Z,72.50
2018-05-03T01:10:40.020Z,72.50
2018-05-03T01:13:05.994Z,72.30
2018-05-03T01:15:32.732Z,72.40
2018-05-03T01:17:59.451Z,73.10
2018-05-03T01:20:25.493Z,72.90
2018-05-03T01:22:51.643Z,73.20
2018-05-03T01:25:18.349Z,74.00
2018-05-03T01:27:44.316Z,74.00
2018-05-03T01:30:10.316Z,74.40
2018-05-03T01:32:36.279Z,74.60
2018-05-03T01:35:14.707Z,75.00
2018-05-03T01:37:40.659Z,75.40
2018-05-03T01:40:06.624Z,75.40
2018-05-03T01:42:33.369Z,75.70
2018-05-03T01:45:00.096Z,75.70
2018-05-03T01:47:26.082Z,75.70
2018-05-03T01:49:52.095Z,75.80
2018-05-03T01:52:18.813Z,76.20
2018-05-03T01:54:44.858Z,76.20
2018-05-03T01:57:11.002Z,76.20
2018-05-03T01:59:36.991Z,76.00
2018-05-03T02:02:02.979Z,75.70
2018-05-03T02:04:29.111Z,76.50
2018-05-03T02:06:55.876Z,75.90
2018-05-03T02:09:21.879Z,75.90
2018-05-03T02:11:47.870Z,75.60
2018-05-03T02:14:14.582Z,76.80
2018-05-03T02:16:40.539Z,76.80
2018-05-03T02:19:06.560Z,77.40
2018-05-03T02:21:32.527Z,77.10
2018-05-03T02:23:59.279Z,78.10
2018-05-03T02:26:26.015Z,76.80
2018-05-03T02:28:52.010Z,76.70
2018-05-03T02:31:17.987Z,77.00
2018-05-03T02:33:44.722Z,75.40
2018-05-03T02:36:10.695Z,75.40
2018-05-03T02:38:37.423Z,76.00
2018-05-03T02:41:03.416Z,76.00
2018-05-03T02:43:29.383Z,75.50
2018-05-03T02:45:55.395Z,75.80
2018-05-03T02:48:21.386Z,76.50
2018-05-03T02:50:48.079Z,76.30
2018-05-03T02:53:14.053Z,76.20
2018-05-03T02:55:40.047Z,76.40
2018-05-03T02:58:18.410Z,76.60
2018-05-03T03:01:03.160Z,77.40
2018-05-03T03:03:47.719Z,77.60
2018-05-03T03:09:58.023Z,78.00
2018-05-03T03:15:58.925Z,77.00
2018-05-03T03:18:43.619Z,77.60
2018-05-03T03:21:28.299Z,76.80
2018-05-03T03:24:13.169Z,76.60
2018-05-03T03:26:57.814Z,75.70
2018-05-03T03:29:46.150Z,75.20
2018-05-03T03:32:24.543Z,73.80
2018-05-03T03:38:14.490Z,72.70
2018-05-03T03:40:52.933Z,71.70
2018-05-03T03:43:31.460Z,69.80
2018-05-03T03:45:57.481Z,69.90
2018-05-03T03:48:23.479Z,69.10
2018-05-03T03:50:49.453Z,68.90
2018-05-03T03:53:15.487Z,69.90
2018-05-03T03:55:41.456Z,69.60
2018-05-03T03:58:08.209Z,69.00
2018-05-03T04:00:34.325Z,68.20
2018-05-03T04:03:00.392Z,67.90
2018-05-03T04:05:27.123Z,67.40
2018-05-03T04:07:53.169Z,67.40
2018-05-03T04:10:19.139Z,67.20
2018-05-03T04:12:45.096Z,66.60
2018-05-03T04:15:11.258Z,66.20
2018-05-03T04:17:49.664Z,66.10
2018-05-03T04:20:28.868Z,66.30
2018-05-03T04:23:08.079Z,66.50
2018-05-03T04:25:46.615Z,66.50
2018-05-03T04:28:12.626Z,66.40
2018-05-03T04:30:38.592Z,66.00
2018-05-03T04:33:04.789Z,66.10
2018-05-03T04:35:30.711Z,65.80
2018-05-03T04:37:56.702Z,66.20
2018-05-03T04:40:28.771Z,65.90
2018-05-03T04:42:54.949Z,66.40
2018-05-03T04:45:20.952Z,66.30
2018-05-03T04:47:47.302Z,66.30
2018-05-03T04:50:13.305Z,66.80
2018-05-03T04:52:39.266Z,67.10
2018-05-03T04:55:05.292Z,66.70
2018-05-03T04:57:31.272Z,66.80
2018-05-03T04:59:57.996Z,66.80
2018-05-03T05:02:23.988Z,66.80
2018-05-03T05:04:50.013Z,67.10
2018-05-03T05:07:15.965Z,66.80
2018-05-03T05:09:41.927Z,66.80
2018-05-03T05:12:07.905Z,67.10
2018-05-03T05:14:33.873Z,66.90
2018-05-03T05:17:00.031Z,67.50
2018-05-03T05:19:26.023Z,67.50
2018-05-03T05:21:52.754Z,67.60
2018-05-03T05:24:19.653Z,67.20
2018-05-03T05:26:45.559Z,67.10
2018-05-03T05:29:12.258Z,66.70
2018-05-03T05:31:38.255Z,67.40
2018-05-03T05:34:04.224Z,66.70
2018-05-03T05:36:30.180Z,66.00
2018-05-03T05:38:56.316Z,66.90
2018-05-03T05:41:22.263Z,66.60
2018-05-03T05:43:48.222Z,66.20
2018-05-03T05:46:14.939Z,64.90
2018-05-03T05:48:40.911Z,64.70
2018-05-03T05:51:06.913Z,63.80
2018-05-03T05:53:32.872Z,62.00
2018-05-03T05:55:59.588Z,54.30
2018-05-03T05:58:25.600Z,54.20
2018-05-03T06:00:51.629Z,51.80
2018-05-03T06:03:17.600Z,48.50
2018-05-03T06:05:43.568Z,45.20
2018-05-03T06:08:10.313Z,41.00
2018-05-03T06:10:37.045Z,42.60
2018-05-03T06:13:03.008Z,42.90
2018-05-03T06:15:29.774Z,41.90
2018-05-03T06:17:56.656Z,41.10
2018-05-03T06:20:22.675Z,41.10
2018-05-03T06:22:48.703Z,42.60
2018-05-03T06:25:15.479Z,40.10
2018-05-03T06:27:41.443Z,40.20
2018-05-03T06:30:07.408Z,48.90
2018-05-03T06:32:33.369Z,55.70
2018-05-03T06:34:59.370Z,59.40
2018-05-03T06:37:25.535Z,61.70
2018-05-03T06:39:52.272Z,64.40
2018-05-03T06:42:18.233Z,64.30
2018-05-03T06:44:44.208Z,63.80
2018-05-03T06:47:10.159Z,56.10
2018-05-03T06:49:36.888Z,58.30
2018-05-03T06:52:02.890Z,58.30
2018-05-03T06:54:29.617Z,48.40
2018-05-03T06:56:55.627Z,48.40
2018-05-03T06:59:21.620Z,43.30
2018-05-03T07:01:47.592Z,46.00
2018-05-03T07:04:13.664Z,43.90
2018-05-03T07:06:40.307Z,37.30
2018-05-03T07:09:06.272Z,37.20
2018-05-03T07:11:32.264Z,38.30
2018-05-03T07:13:58.301Z,36.60
2018-05-03T07:16:24.354Z,35.40
2018-05-03T07:18:50.287Z,36.50
2018-05-03T07:21:16.406Z,37.40
2018-05-03T07:23:42.399Z,43.50
2018-05-03T07:26:09.091Z,52.30
2018-05-03T07:28:35.059Z,52.30
2018-05-03T07:31:01.782Z,54.90
2018-05-03T07:33:27.759Z,55.00
2018-05-03T07:35:54.693Z,44.20
2018-05-03T07:38:21.439Z,37.90
2018-05-03T07:40:47.424Z,37.90
2018-05-03T07:43:13.598Z,37.40
2018-05-03T07:45:39.568Z,35.80
2018-05-03T07:48:06.270Z,43.50
2018-05-03T07:50:32.559Z,43.50
2018-05-03T07:52:59.264Z,51.30
2018-05-03T07:55:25.312Z,51.30
2018-05-03T07:57:51.380Z,53.30
2018-05-03T08:00:17.350Z,54.40
2018-05-03T08:02:43.317Z,55.60
2018-05-03T08:05:09.600Z,55.90
2018-05-03T08:07:35.592Z,56.90
2018-05-03T08:10:01.548Z,57.30
2018-05-03T08:12:27.663Z,58.40
2018-05-03T08:14:54.383Z,61.10
2018-05-03T08:17:20.371Z,61.00
2018-05-03T08:19:46.356Z,61.00
2018-05-03T08:22:12.323Z,60.90
2018-05-03T08:24:38.292Z,59.50
2018-05-03T08:27:04.269Z,59.20
2018-05-03T08:29:30.242Z,56.90
2018-05-03T08:31:56.244Z,56.50
2018-05-03T08:34:22.362Z,55.00
2018-05-03T08:36:49.112Z,56.80
2018-05-03T08:39:15.822Z,57.20
2018-05-03T08:41:41.895Z,57.20
2018-05-03T08:44:08.611Z,55.60
2018-05-03T08:46:34.600Z,55.60
2018-05-03T08:49:01.324Z,55.80
2018-05-03T08:51:27.336Z,55.80
2018-05-03T08:53:53.377Z,54.20
2018-05-03T08:56:20.170Z,52.10
2018-05-03T08:58:46.871Z,49.00
2018-05-03T09:01:12.851Z,49.00
2018-05-03T09:03:39.590Z,47.20
2018-05-03T09:06:05.587Z,47.20
2018-05-03T09:08:31.538Z,47.50
2018-05-03T09:10:57.696Z,49.10
2018-05-03T09:13:23.703Z,48.90
2018-05-03T09:15:49.669Z,47.60
2018-05-03T09:18:15.655Z,47.70
2018-05-03T09:20:41.616Z,47.30
2018-05-03T09:23:07.585Z,45.50
2018-05-03T09:25:33.562Z,45.80
2018-05-03T09:27:59.548Z,45.30
2018-05-03T09:30:25.525Z,43.60
2018-05-03T09:32:51.651Z,44.10
2018-05-03T09:35:17.631Z,45.60
2018-05-03T09:37:43.667Z,46.80
2018-05-03T09:40:10.124Z,47.30
2018-05-03T09:42:36.090Z,48.10
2018-05-03T09:45:02.790Z,48.00
2018-05-03T09:47:29.062Z,47.90
2018-05-03T09:49:55.159Z,47.10
2018-05-03T09:52:21.170Z,47.60
2018-05-03T09:54:47.917Z,47.20
2018-05-03T09:57:14.621Z,47.50
2018-05-03T09:59:40.598Z,47.60
2018-05-03T10:02:07.326Z,47.70
2018-05-03T10:04:33.291Z,47.60
2018-05-03T10:07:00.017Z,49.80
2018-05-03T10:09:26.065Z,49.70
2018-05-03T10:11:52.255Z,48.90
2018-05-03T10:14:18.240Z,48.10
2018-05-03T10:16:44.244Z,48.60
2018-05-03T10:19:10.219Z,49.20
2018-05-03T10:21:36.158Z,49.90
2018-05-03T10:24:02.900Z,49.70
2018-05-03T10:26:28.860Z,49.60
2018-05-03T10:28:55.593Z,48.70
2018-05-03T10:31:22.389Z,47.60
2018-05-03T10:33:48.367Z,47.50
2018-05-03T10:36:14.386Z,48.30
2018-05-03T10:38:40.399Z,47.20
2018-05-03T10:41:06.371Z,45.80
2018-05-03T10:43:32.326Z,46.30
2018-05-03T10:45:58.351Z,46.30
2018-05-03T10:48:24.341Z,46.30
2018-05-03T10:50:50.299Z,46.10
2018-05-03T10:53:16.328Z,45.30
2018-05-03T10:55:42.386Z,43.10
2018-05-03T10:58:08.346Z,43.40
2018-05-03T11:00:34.446Z,46.10
2018-05-03T11:03:00.445Z,46.40
2018-05-03T11:05:26.537Z,46.20
2018-05-03T11:07:53.990Z,46.30
2018-05-03T11:10:19.976Z,45.70
2018-05-03T11:12:53.748Z,46.30
2018-05-03T11:15:19.730Z,46.30
2018-05-03T11:17:45.715Z,45.50
2018-05-03T11:20:11.699Z,44.70
2018-05-03T11:22:38.408Z,42.80
2018-05-03T11:25:04.387Z,42.80
2018-05-03T11:27:31.644Z,42.70
2018-05-03T11:29:58.386Z,42.80
2018-05-03T11:32:25.145Z,42.00
2018-05-03T11:34:51.293Z,42.00
2018-05-03T11:37:18.036Z,40.70
2018-05-03T11:39:44.215Z,40.70
2018-05-03T11:42:10.215Z,42.10
2018-05-03T11:44:36.178Z,43.60
2018-05-03T11:47:02.156Z,45.00
2018-05-03T11:49:28.192Z,44.90
2018-05-03T11:51:54.195Z,44.60
2018-05-03T11:54:20.146Z,43.60
2018-05-03T11:56:46.124Z,43.30
2018-05-03T11:59:12.864Z,44.60
2018-05-03T12:01:38.823Z,44.50
2018-05-03T12:04:05.583Z,42.70
2018-05-03T12:06:32.304Z,41.20
2018-05-03T12:08:58.349Z,41.20
2018-05-03T12:11:24.334Z,40.70
2018-05-03T12:13:50.316Z,41.30
2018-05-03T12:16:16.276Z,40.60
2018-05-03T12:18:43.712Z,40.60
2018-05-03T12:21:09.691Z,40.60
2018-05-03T12:23:35.646Z,40.80
2018-05-03T12:26:01.728Z,39.80
2018-05-03T12:28:27.740Z,40.00
2018-05-03T12:30:53.757Z,39.60
2018-05-03T12:33:19.775Z,39.30
2018-05-03T12:35:45.747Z,40.50
2018-05-03T12:38:11.722Z,40.80
2018-05-03T12:40:38.918Z,39.20
2018-05-03T12:43:04.872Z,39.20
2018-05-03T12:45:30.847Z,38.60
2018-05-03T12:47:56.890Z,39.30
2018-05-03T12:50:23.666Z,38.30
2018-05-03T12:52:49.648Z,38.30
2018-05-03T12:55:15.634Z,38.90
2018-05-03T12:57:42.330Z,38.40
2018-05-03T13:00:08.294Z,38.40
2018-05-03T13:02:34.280Z,37.30
2018-05-03T13:05:00.259Z,37.50
2018-05-03T13:07:26.299Z,36.90
2018-05-03T13:09:52.345Z,37.60
2018-05-03T13:12:19.075Z,39.30
2018-05-03T13:14:45.045Z,38.80
2018-05-03T13:17:11.800Z,38.70
2018-05-03T13:19:38.498Z,38.60
2018-05-03T13:22:04.455Z,38.50
2018-05-03T13:24:30.705Z,38.50
2018-05-03T13:26:56.740Z,38.30
2018-05-03T13:29:22.810Z,38.90
2018-05-03T13:31:48.849Z,39.50
2018-05-03T13:34:14.810Z,39.70
2018-05-03T13:36:40.772Z,39.40
2018-05-03T13:39:13.707Z,38.20
2018-05-03T13:41:40.422Z,38.70
2018-05-03T13:44:06.398Z,38.70
2018-05-03T13:46:33.248Z,38.80
2018-05-03T13:48:59.982Z,37.90
2018-05-03T13:51:27.589Z,38.50
2018-05-03T13:53:53.843Z,38.50
2018-05-03T13:56:19.840Z,38.70
2018-05-03T13:58:45.807Z,38.60
2018-05-03T14:01:11.798Z,38.90
2018-05-03T14:03:37.759Z,38.80
2018-05-03T14:06:04.495Z,37.90
2018-05-03T14:08:30.483Z,37.80
2018-05-03T14:10:56.508Z,37.40
2018-05-03T14:13:22.524Z,38.50
2018-05-03T14:15:49.235Z,39.30
2018-05-03T14:18:15.336Z,39.30
2018-05-03T14:20:41.312Z,38.70
2018-05-03T14:23:07.305Z,39.50
2018-05-03T14:25:33.311Z,39.00
2018-05-03T14:27:59.279Z,39.30
2018-05-03T14:30:25.324Z,38.80
2018-05-03T14:32:51.368Z,38.40
2018-05-03T14:35:17.345Z,39.20
2018-05-03T14:37:43.690Z,38.50
2018-05-03T14:40:09.651Z,38.10
2018-05-03T14:42:36.352Z,38.30
2018-05-03T14:45:02.420Z,38.20
2018-05-03T14:47:28.455Z,38.10
2018-05-03T14:49:54.510Z,38.20
2018-05-03T14:52:20.520Z,38.20
2018-05-03T14:54:46.483Z,38.70
2018-05-03T14:57:12.447Z,38.30
2018-05-03T14:59:38.700Z,37.00
2018-05-03T15:02:04.691Z,36.90
2018-05-03T15:04:31.406Z,36.40
2018-05-03T15:06:57.391Z,36.40
2018-05-03T15:09:23.382Z,36.90
2018-05-03T15:11:49.384Z,37.50
2018-05-03T15:14:15.429Z,38.30
2018-05-03T15:16:41.400Z,38.70
2018-05-03T15:19:07.406Z,38.60
2018-05-03T15:21:33.397Z,38.50
2018-05-03T15:24:00.136Z,39.00
2018-05-03T15:26:27.644Z,39.10
2018-05-03T15:28:54.034Z,39.00
2018-05-03T15:31:20.816Z,40.40
2018-05-03T15:33:47.538Z,40.80
2018-05-03T15:36:13.568Z,40.80
2018-05-03T15:38:39.528Z,41.00
2018-05-03T15:41:05.499Z,41.00
2018-05-03T15:43:31.553Z,40.60
2018-05-03T15:45:57.518Z,40.80
2018-05-03T15:48:23.613Z,41.20
2018-05-03T15:50:49.799Z,41.40
2018-05-03T15:53:15.800Z,40.80
2018-05-03T15:55:41.931Z,40.70
2018-05-03T15:58:08.646Z,39.80
2018-05-03T16:00:35.525Z,39.80
2018-05-03T16:03:01.533Z,39.70
2018-05-03T16:05:27.568Z,38.50
2018-05-03T16:07:53.592Z,38.50
2018-05-03T16:10:19.581Z,38.60
2018-05-03T16:12:45.554Z,39.00
2018-05-03T16:15:11.514Z,37.70
2018-05-03T16:17:38.310Z,38.60
2018-05-03T16:20:04.582Z,37.90
2018-05-03T16:22:30.547Z,38.00
2018-05-03T16:24:56.572Z,37.70
2018-05-03T16:27:22.763Z,37.70
2018-05-03T16:29:48.784Z,37.70
2018-05-03T16:32:14.770Z,37.10
2018-05-03T16:34:40.755Z,37.90
2018-05-03T16:37:06.723Z,38.30
2018-05-03T16:39:32.699Z,38.50
2018-05-03T16:41:58.699Z,38.00
2018-05-03T16:44:24.677Z,38.30
2018-05-03T16:46:51.514Z,38.60
2018-05-03T16:49:18.151Z,38.90
2018-05-03T16:51:44.142Z,38.80
2018-05-03T16:54:10.112Z,39.00
2018-05-03T16:56:36.105Z,39.40
2018-05-03T16:59:02.819Z,39.50
2018-05-03T17:01:28.775Z,39.40
2018-05-03T17:03:55.542Z,40.50
2018-05-03T17:06:21.598Z,40.20
2018-05-03T17:08:47.579Z,40.20
2018-05-03T17:11:13.600Z,40.80
2018-05-03T17:13:39.580Z,41.40
2018-05-03T17:16:06.443Z,42.20
2018-05-03T17:18:33.200Z,42.40
2018-05-03T17:20:59.903Z,43.40
2018-05-03T17:23:25.915Z,43.40
2018-05-03T17:25:52.030Z,43.30
2018-05-03T17:28:17.995Z,43.10
2018-05-03T17:30:43.947Z,43.30
2018-05-03T17:33:09.940Z,43.50
2018-05-03T17:35:35.995Z,43.20
2018-05-03T17:38:02.024Z,44.00
2018-05-03T17:40:28.136Z,44.40
2018-05-03T17:42:55.036Z,44.70
2018-05-03T17:45:21.025Z,44.60
2018-05-03T17:47:47.750Z,45.40
2018-05-03T17:50:13.743Z,45.30
2018-05-03T17:52:39.707Z,45.40
2018-05-03T17:55:05.722Z,45.60
2018-05-03T17:57:31.741Z,46.20
2018-05-03T17:59:57.799Z,46.60
2018-05-03T18:02:23.876Z,47.10
2018-05-03T18:04:49.922Z,47.30
2018-05-03T18:07:16.664Z,48.30
2018-05-03T18:09:42.742Z,48.20
2018-05-03T18:12:08.722Z,48.70
2018-05-03T18:14:34.692Z,49.10
2018-05-03T18:17:01.480Z,50.50
2018-05-03T18:19:27.478Z,50.50
2018-05-03T18:21:53.542Z,50.90
2018-05-03T18:24:19.533Z,51.30
2018-05-03T18:26:46.986Z,52.60
2018-05-03T18:29:12.966Z,52.60
2018-05-03T18:31:39.747Z,53.30
2018-05-03T18:34:05.731Z,53.20
2018-05-03T18:36:31.695Z,53.70
2018-05-03T18:38:58.475Z,54.80
2018-05-03T18:41:24.760Z,54.80
2018-05-03T18:43:50.765Z,55.40
2018-05-03T18:46:16.760Z,56.20
2018-05-03T18:48:43.503Z,57.20
2018-05-03T18:51:10.232Z,57.80
2018-05-03T18:53:36.279Z,57.70
2018-05-03T18:56:02.272Z,57.80
2018-05-03T18:58:28.254Z,58.20
2018-05-03T19:00:54.328Z,58.70
2018-05-03T19:03:20.344Z,59.50
2018-05-03T19:05:47.054Z,60.60
2018-05-03T19:08:13.050Z,60.50
2018-05-03T19:10:39.030Z,61.10
2018-05-03T19:13:05.095Z,61.60
2018-05-03T19:15:31.060Z,61.90
2018-05-03T19:17:57.918Z,63.00
2018-05-03T19:20:23.872Z,62.90
2018-05-03T19:22:49.880Z,64.10
2018-05-03T19:25:16.601Z,64.00
2018-05-03T19:27:42.576Z,63.90
2018-05-03T19:30:08.565Z,64.20
2018-05-03T19:32:34.550Z,64.20
2018-05-03T19:35:00.543Z,64.40
2018-05-03T19:37:26.553Z,64.70
2018-05-03T19:39:52.556Z,63.40
2018-05-03T19:42:18.535Z,62.20
2018-05-03T19:44:44.803Z,61.30
2018-05-03T19:47:10.787Z,60.80
2018-05-03T19:49:36.785Z,60.60
2018-05-03T19:52:02.756Z,60.00
2018-05-03T19:54:28.797Z,59.40
2018-05-03T19:56:54.850Z,59.60
2018-05-03T19:59:20.850Z,58.80
2018-05-03T20:01:46.821Z,58.50
2018-05-03T20:04:12.786Z,57.90
2018-05-03T20:06:38.814Z,57.50
2018-05-03T20:09:04.802Z,57.40
2018-05-03T20:11:30.836Z,57.40
2018-05-03T20:13:57.147Z,57.50
2018-05-03T20:16:23.883Z,56.30
2018-05-03T20:18:49.879Z,55.70
2018-05-03T20:21:15.897Z,55.20
2018-05-03T20:23:41.888Z,55.00
2018-05-03T20:26:07.890Z,54.80
2018-05-03T20:28:33.912Z,53.90
2018-05-03T20:30:59.917Z,53.00
2018-05-03T20:33:26.662Z,51.80
2018-05-03T20:35:52.687Z,51.70
2018-05-03T20:38:18.704Z,51.20
2018-05-03T20:40:44.735Z,51.20
2018-05-03T20:43:10.756Z,50.70
2018-05-03T20:45:36.755Z,50.50
2018-05-03T20:48:02.767Z,50.20
2018-05-03T20:50:28.824Z,50.00
2018-05-03T20:52:54.880Z,50.30
2018-05-03T20:55:21.674Z,50.20
2018-05-03T20:57:47.738Z,50.20
2018-05-03T21:00:13.700Z,49.90
2018-05-03T21:02:40.436Z,50.00
2018-05-03T21:05:06.395Z,50.00
2018-05-03T21:07:33.108Z,50.20
2018-05-03T21:09:59.090Z,50.10
2018-05-03T21:12:25.827Z,50.00
2018-05-03T21:14:52.555Z,50.10
2018-05-03T21:17:18.542Z,50.00
2018-05-03T21:19:44.552Z,50.10
2018-05-03T21:22:11.255Z,50.10
2018-05-03T21:24:37.223Z,50.00
2018-05-03T21:27:03.200Z,49.70
2018-05-03T21:29:29.176Z,50.00
2018-05-03T21:31:55.130Z,50.20
2018-05-03T21:34:21.432Z,50.20
2018-05-03T21:36:47.430Z,50.10
2018-05-03T21:39:14.133Z,50.60
2018-05-03T21:41:40.493Z,50.60
2018-05-03T21:44:06.385Z,50.60
2018-05-03T21:46:32.358Z,50.50
2018-05-03T21:48:58.351Z,50.00
2018-05-03T21:51:24.315Z,50.40
2018-05-03T21:53:50.310Z,50.30
2018-05-03T21:56:16.286Z,50.50
2018-05-03T21:58:42.390Z,50.80
2018-05-03T22:01:08.354Z,50.80
2018-05-03T22:03:34.344Z,51.10
2018-05-03T22:06:00.428Z,51.20
2018-05-03T22:08:26.399Z,51.10
2018-05-03T22:10:52.526Z,51.30
2018-05-03T22:13:18.497Z,51.30
2018-05-03T22:15:45.199Z,51.40
2018-05-03T22:18:11.174Z,51.30
2018-05-03T22:20:37.928Z,51.30
2018-05-03T22:23:04.304Z,51.20
2018-05-03T22:25:30.511Z,51.60
2018-05-03T22:27:57.276Z,52.00
2018-05-03T22:30:23.359Z,52.00
2018-05-03T22:32:49.363Z,52.00
2018-05-03T22:35:15.330Z,52.30
2018-05-03T22:37:41.294Z,52.30
2018-05-03T22:40:07.267Z,52.20
2018-05-03T22:42:33.244Z,52.40
2018-05-03T22:44:59.217Z,52.40
2018-05-03T22:47:26.147Z,52.70
2018-05-03T22:49:52.239Z,52.70
2018-05-03T22:52:18.207Z,52.70
2018-05-03T22:54:44.449Z,52.50
2018-05-03T22:57:10.406Z,52.60
2018-05-03T22:59:36.378Z,52.50
2018-05-03T23:02:02.357Z,52.80
2018-05-03T23:04:28.331Z,53.00
2018-05-03T23:06:55.080Z,53.50
2018-05-03T23:09:21.847Z,53.90
2018-05-03T23:11:54.816Z,53.80
2018-05-03T23:14:20.799Z,53.80
2018-05-03T23:16:46.838Z,53.60
2018-05-03T23:19:12.803Z,54.10
2018-05-03T23:21:38.771Z,54.10
2018-05-03T23:24:05.518Z,54.70
2018-05-03T23:26:31.506Z,54.10
2018-05-03T23:28:57.499Z,53.90
2018-05-03T23:31:24.235Z,53.60
2018-05-03T23:33:50.204Z,53.50
2018-05-03T23:36:16.163Z,54.20
2018-05-03T23:38:42.332Z,54.20
2018-05-03T23:41:08.403Z,53.80
2018-05-03T23:43:35.099Z,54.40
2018-05-03T23:46:01.084Z,54.40
2018-05-03T23:48:27.855Z,54.70
2018-05-03T23:50:54.609Z,54.40
2018-05-03T23:53:20.581Z,54.40
2018-05-03T23:55:46.538Z,54.70
2018-05-03T23:58:12.499Z,54.80
